TimeAKST,TemperatureF,Dew PointF,Humidity,Sea Level PressureIn,VisibilityMPH,Wind Direction,Wind SpeedMPH,Gust SpeedMPH,PrecipitationIn,Events,Conditions,WindDirDegrees,DateUTC
12:53 AM,36.0,26.1,67,29.41,10.0,ESE,13.8,-,0.00,,Overcast,120,2012-12-05 09:53:00
1:53 AM,36.0,25.0,64,29.43,10.0,ESE,12.7,-,N/A,,Mostly Cloudy,120,2012-12-05 10:53:00
3:53 AM,37.0,26.1,65,29.45,10.0,ESE,10.4,-,N/A,,Overcast,120,2012-12-05 12:53:00
5:53 AM,37.0,27.0,67,29.48,10.0,ESE,13.8,-,N/A,,Overcast,120,2012-12-05 14:53:00
6:53 AM,37.0,26.1,65,29.49,7.0,ESE,12.7,-,N/A,,Mostly Cloudy,120,2012-12-05 15:53:00
7:53 AM,36.0,25.0,64,29.50,10.0,ESE,12.7,-,N/A,,Mostly Cloudy,110,2012-12-05 16:53:00
8:53 AM,37.0,25.0,62,29.51,10.0,ESE,13.8,21.9,N/A,,Mostly Cloudy,110,2012-12-05 17:53:00
9:53 AM,37.0,25.0,62,29.53,10.0,ESE,17.3,-,N/A,,Overcast,120,2012-12-05 18:53:00
10:53 AM,37.9,26.1,62,29.53,10.0,ESE,18.4,21.9,N/A,,Mostly Cloudy,120,2012-12-05 19:53:00
11:53 AM,37.9,25.0,60,29.54,10.0,ESE,17.3,-,N/A,,Overcast,120,2012-12-05 20:53:00
12:53 PM,36.0,28.0,73,29.55,10.0,ESE,17.3,25.3,N/A,,Mostly Cloudy,110,2012-12-05 21:53:00
1:53 PM,37.0,28.0,70,29.55,9.0,ESE,15.0,-,0.00,,Overcast,120,2012-12-05 22:53:00
2:53 PM,37.0,27.0,67,29.55,10.0,East,16.1,-,N/A,,Mostly Cloudy,100,2012-12-05 23:53:00
3:30 PM,37.4,28.4,70,29.56,7.0,SSE,8.1,-,0.00,Snow,Light Snow,160,2012-12-06 00:30:00
3:40 PM,37.4,30.2,75,29.57,2.0,SSW,9.2,-,0.00,Snow,Light Snow,200,2012-12-06 00:40:00
3:53 PM,35.1,33.1,92,29.57,2.0,South,10.4,-,0.01,Snow,Light Snow,180,2012-12-06 00:53:00
4:13 PM,33.8,33.8,100,29.57,3.0,Calm,Calm,-,0.02,Snow,Light Snow,0,2012-12-06 01:13:00
4:41 PM,33.8,32.0,93,29.59,1.8,SE,11.5,-,0.03,Snow,Snow,130,2012-12-06 01:41:00
4:50 PM,33.8,32.0,93,29.59,1.0,SE,10.4,-,0.05,Snow,Heavy Snow,130,2012-12-06 01:50:00
4:53 PM,34.0,32.0,92,29.60,0.5,SE,10.4,-,0.05,Fog-Snow,Heavy Snow,130,2012-12-06 01:53:00
5:15 PM,33.8,33.8,100,29.59,2.5,ESE,11.5,-,0.05,Snow,Light Snow,110,2012-12-06 02:15:00
5:17 PM,33.8,33.8,100,29.59,3.0,ESE,13.8,-,0.05,Snow,Light Snow,110,2012-12-06 02:17:00
5:26 PM,33.8,33.8,100,29.59,4.0,East,11.5,-,0.05,Snow,Light Snow,90,2012-12-06 02:26:00
5:46 PM,33.8,33.8,100,29.60,2.0,East,8.1,-,0.05,Snow,Light Snow,90,2012-12-06 02:46:00
5:53 PM,33.1,33.1,100,29.60,6.0,ESE,9.2,-,0.05,Snow,Light Snow,120,2012-12-06 02:53:00
6:02 PM,33.8,33.8,100,29.61,1.5,SE,16.1,-,0.01,Snow,Light Snow,130,2012-12-06 03:02:00
6:06 PM,33.8,33.8,100,29.61,0.8,SE,15.0,-,0.02,Snow,Snow,130,2012-12-06 03:06:00
6:16 PM,33.8,33.8,100,29.61,1.0,East,12.7,-,0.03,Snow,Light Snow,100,2012-12-06 03:16:00
6:22 PM,33.8,33.8,100,29.61,3.0,East,9.2,17.3,0.03,Snow,Light Snow,100,2012-12-06 03:22:00
6:34 PM,33.8,33.8,100,29.61,4.0,East,8.1,-,0.04,Snow,Light Snow,100,2012-12-06 03:34:00
6:43 PM,33.8,32.0,93,29.61,8.0,East,5.8,-,0.04,Snow,Light Snow,90,2012-12-06 03:43:00
6:53 PM,35.1,32.0,89,29.61,8.0,ESE,12.7,-,0.04,Snow,Light Snow,110,2012-12-06 03:53:00
7:04 PM,33.8,32.0,93,29.62,2.5,ESE,11.5,-,0.03,Snow,Light Snow,110,2012-12-06 04:04:00
7:11 PM,35.6,33.8,93,29.62,3.0,ESE,15.0,-,0.03,Snow,Light Snow,120,2012-12-06 04:11:00
7:25 PM,35.6,32.0,87,29.63,10.0,East,12.7,-,0.03,,Overcast,100,2012-12-06 04:25:00
7:53 PM,37.4,30.2,75,29.64,10.0,SSE,10.4,-,N/A,,Mostly Cloudy,150,2012-12-06 04:53:00
8:53 PM,36.0,30.0,79,29.66,9.0,ESE,12.7,20.7,0.00,Snow,Light Snow,120,2012-12-06 05:53:00
9:36 PM,33.8,30.2,87,29.67,6.0,ESE,11.5,-,0.02,Snow,Light Snow,110,2012-12-06 06:36:00
9:43 PM,33.8,30.2,87,29.67,9.0,East,13.8,-,0.02,,Scattered Clouds,100,2012-12-06 06:43:00
9:53 PM,34.0,28.9,82,29.67,10.0,East,11.5,-,0.02,,Mostly Cloudy,100,2012-12-06 06:53:00
10:53 PM,34.0,28.9,82,29.70,10.0,ESE,10.4,-,0.00,,Overcast,110,2012-12-06 07:53:00
11:10 PM,33.8,30.2,87,29.70,10.0,ESE,16.1,-,N/A,,Overcast,110,2012-12-06 08:10:00
11:18 PM,33.8,28.4,81,29.70,10.0,East,12.7,-,N/A,,Mostly Cloudy,100,2012-12-06 08:18:00
11:53 PM,35.1,28.9,78,29.70,10.0,ESE,13.8,-,N/A,,Mostly Cloudy,120,2012-12-06 08:53:00